createdAt,value
2023-01-30T00:01:33.680Z,101514.13
2023-01-30T00:04:02.485Z,101500.41
2023-01-30T00:06:31.189Z,101511.00
2023-01-30T00:09:00.017Z,101508.34
2023-01-30T00:11:30.464Z,101510.25
2023-01-30T00:13:59.432Z,101503.34
2023-01-30T00:16:28.070Z,101505.25
2023-01-30T00:18:57.024Z,101501.84
2023-01-30T00:21:25.534Z,101496.72
2023-01-30T00:23:54.587Z,101493.22
2023-01-30T00:26:23.195Z,101480.91
2023-01-30T00:28:52.084Z,101489.91
2023-01-30T00:31:20.746Z,101487.25
2023-01-30T00:33:49.583Z,101483.03
2023-01-30T00:36:18.072Z,101483.94
2023-01-30T00:38:47.924Z,101484.91
2023-01-30T00:41:17.605Z,101480.63
2023-01-30T00:44:04.964Z,101471.31
2023-01-30T00:47:13.547Z,101479.13
2023-01-30T00:49:42.650Z,101470.41
2023-01-30T00:52:11.236Z,101466.94
2023-01-30T00:54:41.704Z,101465.31
2023-01-30T00:57:10.238Z,101465.38
2023-01-30T01:52:31.771Z,101421.41
2023-01-30T01:55:03.044Z,101416.19
2023-01-30T01:58:05.929Z,101416.28
2023-01-30T02:00:35.346Z,101413.72
2023-01-30T02:03:07.859Z,101405.22
2023-01-30T02:05:39.483Z,101400.00
2023-01-30T02:08:21.684Z,101400.75
2023-01-30T02:11:19.942Z,101393.13
2023-01-30T02:13:48.599Z,101396.53
2023-01-30T02:16:17.810Z,101382.59
2023-01-30T02:18:46.451Z,101388.00
2023-01-30T02:21:42.998Z,101390.66
2023-01-30T02:24:29.809Z,101392.38
2023-01-30T02:27:36.022Z,101388.00
2023-01-30T02:30:35.660Z,101392.44
2023-01-30T02:33:50.675Z,101385.56
2023-01-30T02:36:28.424Z,101386.50
2023-01-30T02:39:19.039Z,101381.41
2023-01-30T02:42:25.502Z,101388.38
2023-01-30T02:45:26.671Z,101384.97
2023-01-30T02:48:04.909Z,101384.13
2023-01-30T02:50:47.970Z,101378.94
2023-01-30T02:53:16.649Z,101382.50
2023-01-30T02:55:45.511Z,101379.09
2023-01-30T02:58:14.148Z,101374.03
2023-01-30T03:01:33.623Z,101361.03
2023-01-30T03:04:44.569Z,101364.34
2023-01-30T03:07:56.262Z,101354.13
2023-01-30T03:10:37.508Z,101356.59
2023-01-30T03:13:34.310Z,101341.63
2023-01-30T03:16:06.686Z,101343.53
2023-01-30T03:18:35.651Z,101336.56
2023-01-30T03:21:06.242Z,101341.94
2023-01-30T03:23:35.209Z,101333.31
2023-01-30T03:26:11.065Z,101332.28
2023-01-30T03:28:41.431Z,101321.22
2023-01-30T03:31:10.722Z,101323.66
2023-01-30T03:33:39.758Z,101314.22
2023-01-30T03:36:09.038Z,101319.41
2023-01-30T03:38:39.968Z,101322.91
2023-01-30T03:41:08.620Z,101310.06
2023-01-30T03:43:37.514Z,101324.81
2023-01-30T03:46:07.854Z,101307.31
2023-01-30T03:48:36.698Z,101304.97
2023-01-30T03:51:05.490Z,101314.50
2023-01-30T03:53:34.370Z,101311.94
2023-01-30T03:56:03.085Z,101303.16
2023-01-30T03:58:34.727Z,101295.28
2023-01-30T04:01:15.671Z,101302.50
2023-01-30T04:03:44.581Z,101293.63
2023-01-30T04:06:13.085Z,101289.34
2023-01-30T04:08:42.569Z,101293.78
2023-01-30T04:11:17.689Z,101295.69
2023-01-30T04:13:46.627Z,101291.31
2023-01-30T04:16:26.399Z,101280.09
2023-01-30T04:19:13.698Z,101279.88
2023-01-30T04:21:43.064Z,101272.16
2023-01-30T04:24:12.119Z,101274.03
2023-01-30T04:26:40.707Z,101273.16
2023-01-30T04:29:10.474Z,101268.84
2023-01-30T04:31:40.634Z,101259.16
2023-01-30T04:34:25.071Z,101255.97
2023-01-30T04:36:54.134Z,101265.53
2023-01-30T04:39:22.988Z,101255.78
2023-01-30T04:41:51.620Z,101251.13
2023-01-30T04:44:21.246Z,101254.25
2023-01-30T04:47:22.194Z,101246.28
2023-01-30T04:49:51.145Z,101248.47
2023-01-30T04:52:19.820Z,101238.78
2023-01-30T04:54:49.813Z,101240.94
2023-01-30T04:57:19.596Z,101236.19
2023-01-30T04:59:48.717Z,101232.66
2023-01-30T05:02:18.416Z,101226.00
2023-01-30T05:04:50.639Z,101233.97
2023-01-30T05:07:19.391Z,101229.41
2023-01-30T05:09:48.356Z,101232.53
2023-01-30T05:12:17.155Z,101227.78
2023-01-30T05:14:47.385Z,101228.78
2023-01-30T05:17:16.154Z,101222.31
2023-01-30T05:19:45.189Z,101227.50
2023-01-30T05:22:13.875Z,101225.06
2023-01-30T05:24:42.878Z,101232.28
2023-01-30T05:27:11.613Z,101235.41
2023-01-30T05:29:40.626Z,101243.22
2023-01-30T05:32:11.889Z,101250.44
2023-01-30T05:34:41.118Z,101244.59
2023-01-30T05:37:10.897Z,101243.75
2023-01-30T05:39:39.621Z,101242.81
2023-01-30T05:42:08.106Z,101249.34
2023-01-30T05:44:37.017Z,101250.63
2023-01-30T05:47:05.501Z,101233.00
2023-01-30T05:49:34.360Z,101241.81
2023-01-30T05:52:02.908Z,101252.28
2023-01-30T05:54:32.059Z,101267.94
2023-01-30T05:57:00.785Z,101260.06
2023-01-30T05:59:29.759Z,101269.81
2023-01-30T06:01:58.405Z,101262.50
2023-01-30T06:04:28.672Z,101253.88
2023-01-30T06:06:57.080Z,101255.31
2023-01-30T06:09:27.393Z,101250.03
2023-01-30T06:11:56.108Z,101247.38
2023-01-30T06:14:24.956Z,101246.38
2023-01-30T06:16:53.520Z,101258.44
2023-01-30T06:19:22.462Z,101244.78
2023-01-30T06:21:50.896Z,101256.16
2023-01-30T06:24:19.610Z,101263.50
2023-01-30T06:26:48.045Z,101255.22
2023-01-30T06:29:16.789Z,101256.06
2023-01-30T06:31:45.334Z,101253.84
2023-01-30T06:34:14.277Z,101259.91
2023-01-30T06:36:44.229Z,101261.63
2023-01-30T06:39:13.298Z,101265.91
2023-01-30T06:41:41.977Z,101269.75
2023-01-30T06:44:11.059Z,101271.03
2023-01-30T06:46:40.412Z,101267.34
2023-01-30T06:49:09.548Z,101262.03
2023-01-30T06:51:38.216Z,101262.69
2023-01-30T06:54:07.275Z,101263.69
2023-01-30T06:56:35.999Z,101260.56
2023-01-30T06:59:05.018Z,101260.91
2023-01-30T07:01:33.803Z,101264.50
2023-01-30T07:04:02.864Z,101272.19
2023-01-30T07:06:31.664Z,101277.72
2023-01-30T07:09:00.663Z,101270.94
2023-01-30T07:11:29.346Z,101248.94
2023-01-30T07:13:58.599Z,101242.47
2023-01-30T07:16:29.636Z,101246.31
2023-01-30T07:18:59.195Z,101240.16
2023-01-30T07:21:28.038Z,101242.25
2023-01-30T07:23:56.882Z,101246.94
2023-01-30T07:26:25.753Z,101243.88
2023-01-30T07:29:19.924Z,101241.22
2023-01-30T07:31:48.798Z,101250.34
2023-01-30T07:34:19.002Z,101250.47
2023-01-30T07:36:47.816Z,101245.25
2023-01-30T07:39:16.596Z,101247.41
2023-01-30T07:41:45.160Z,101224.84
2023-01-30T07:44:14.451Z,101243.47
2023-01-30T07:46:43.216Z,101239.31
2023-01-30T07:49:12.104Z,101237.59
2023-01-30T07:51:40.677Z,101242.16
2023-01-30T07:54:10.718Z,101243.34
2023-01-30T07:56:39.444Z,101233.66
2023-01-30T07:59:08.335Z,101258.19
2023-01-30T08:01:36.910Z,101269.97
2023-01-30T08:04:05.999Z,101258.19
2023-01-30T08:06:39.417Z,101248.06
2023-01-30T08:09:08.708Z,101240.25
2023-01-30T08:11:37.141Z,101232.81
2023-01-30T08:14:07.181Z,101229.75
2023-01-30T08:16:35.918Z,101220.88
2023-01-30T08:19:06.068Z,101222.94
2023-01-30T08:21:34.690Z,101209.19
2023-01-30T08:24:04.961Z,101194.09
2023-01-30T08:26:33.569Z,101191.34
2023-01-30T08:29:03.608Z,101189.22
2023-01-30T08:31:32.242Z,101187.84
2023-01-30T08:34:01.141Z,101188.91
2023-01-30T08:36:29.705Z,101192.53
2023-01-30T08:38:58.564Z,101191.78
2023-01-30T08:41:28.879Z,101186.00
2023-01-30T08:43:57.835Z,101193.22
2023-01-30T08:46:26.497Z,101206.66
2023-01-30T08:48:55.452Z,101212.38
2023-01-30T08:51:24.002Z,101223.72
2023-01-30T08:53:52.934Z,101203.50
2023-01-30T08:56:21.503Z,101200.09
2023-01-30T08:58:50.460Z,101203.03
2023-01-30T09:01:19.127Z,101210.69
2023-01-30T09:03:48.370Z,101207.94
2023-01-30T09:06:16.812Z,101216.03
2023-01-30T09:08:45.875Z,101206.72
2023-01-30T09:11:14.390Z,101213.50
2023-01-30T09:13:44.785Z,101202.50
2023-01-30T09:16:13.472Z,101192.94
2023-01-30T09:18:43.308Z,101191.88
2023-01-30T09:21:13.081Z,101187.00
2023-01-30T09:23:41.982Z,101176.06
2023-01-30T09:26:10.727Z,101187.84
2023-01-30T09:28:40.761Z,101167.91
2023-01-30T09:31:09.472Z,101171.50
2023-01-30T09:33:38.457Z,101181.91
2023-01-30T09:36:07.961Z,101176.59
2023-01-30T09:38:36.811Z,101174.69
2023-01-30T09:41:30.556Z,101176.59
2023-01-30T09:44:37.051Z,101176.16
2023-01-30T09:47:23.815Z,101175.66
2023-01-30T09:50:58.396Z,101175.75
2023-01-30T09:53:51.407Z,101161.09
2023-01-30T09:56:20.488Z,101156.94
2023-01-30T09:59:16.219Z,101147.97
2023-01-30T10:01:58.480Z,101160.47
2023-01-30T10:04:41.953Z,101156.09
2023-01-30T10:07:24.675Z,101154.28
2023-01-30T10:09:58.671Z,101153.44
2023-01-30T10:13:04.082Z,101146.56
2023-01-30T10:15:56.437Z,101141.25
2023-01-30T10:19:26.090Z,101117.59
2023-01-30T10:22:32.015Z,101110.81
2023-01-30T10:25:33.583Z,101098.72
2023-01-30T10:28:34.551Z,101097.78
2023-01-30T10:31:09.226Z,101091.50
2023-01-30T10:33:50.610Z,101093.41
2023-01-30T10:36:28.290Z,101074.13
2023-01-30T10:38:57.660Z,101068.94
2023-01-30T10:41:55.282Z,101065.25
2023-01-30T10:44:24.823Z,101072.00
2023-01-30T10:47:02.780Z,101052.47
2023-01-30T10:49:58.130Z,101048.03
2023-01-30T10:52:38.978Z,101047.03
2023-01-30T10:55:36.833Z,101048.94
2023-01-30T10:58:27.294Z,101044.44
2023-01-30T11:01:01.399Z,101045.22
2023-01-30T11:04:19.149Z,101045.28
2023-01-30T11:06:48.155Z,101035.44
2023-01-30T11:09:16.699Z,101025.97
2023-01-30T11:11:49.656Z,101007.94
2023-01-30T11:14:18.471Z,101009.91
2023-01-30T11:16:52.329Z,100999.09
2023-01-30T11:19:25.843Z,100983.56
2023-01-30T11:21:56.614Z,100990.94
2023-01-30T11:24:32.431Z,100984.91
2023-01-30T11:27:44.884Z,100982.25
2023-01-30T11:30:16.620Z,100970.88
2023-01-30T11:32:48.461Z,100963.84
2023-01-30T11:35:29.517Z,100955.66
2023-01-30T11:38:24.375Z,100935.81
2023-01-30T11:41:17.836Z,100957.31
2023-01-30T11:43:48.533Z,100940.63
2023-01-30T11:46:20.829Z,100929.47
2023-01-30T11:49:06.169Z,100946.56
2023-01-30T11:51:45.565Z,100963.47
2023-01-30T11:54:20.133Z,100945.66
2023-01-30T11:56:55.800Z,100921.19
2023-01-30T11:59:25.810Z,100919.09
2023-01-30T12:02:02.134Z,100918.50
2023-01-30T12:04:31.337Z,100903.94
2023-01-30T12:07:21.161Z,100888.22
2023-01-30T12:09:51.959Z,100870.81
2023-01-30T12:12:45.882Z,100870.81
2023-01-30T12:15:31.289Z,100853.13
2023-01-30T12:18:20.160Z,100865.91
2023-01-30T12:21:00.161Z,100884.66
2023-01-30T12:23:47.827Z,100858.72
2023-01-30T12:26:44.954Z,100856.88
2023-01-30T12:29:33.854Z,100853.75
2023-01-30T12:32:22.679Z,100831.72
2023-01-30T12:34:51.592Z,100825.69
2023-01-30T12:37:40.061Z,100840.09
2023-01-30T12:40:08.782Z,100833.34
2023-01-30T12:42:58.292Z,100821.09
2023-01-30T12:45:51.486Z,100810.25
2023-01-30T12:48:43.973Z,100805.31
2023-01-30T12:51:55.632Z,100820.41
2023-01-30T12:54:24.792Z,100811.28
2023-01-30T12:57:05.626Z,100818.06
2023-01-30T13:00:09.746Z,100807.41
2023-01-30T13:02:57.060Z,100805.97
2023-01-30T13:06:08.203Z,100753.31
2023-01-30T13:09:16.633Z,100742.91
2023-01-30T13:12:05.386Z,100755.75
2023-01-30T13:14:59.295Z,100764.81
2023-01-30T13:17:38.528Z,100769.53
2023-01-30T13:20:13.758Z,100765.19
2023-01-30T13:23:19.363Z,100773.41
2023-01-30T13:25:55.538Z,100766.53
2023-01-30T13:28:41.899Z,100780.81
2023-01-30T13:31:12.782Z,100769.56
2023-01-30T13:33:44.794Z,100761.81
2023-01-30T13:36:31.744Z,100738.75
2023-01-30T13:39:03.713Z,100734.53
2023-01-30T13:41:38.733Z,100733.69
2023-01-30T13:44:29.397Z,100726.94
2023-01-30T13:46:59.757Z,100727.28
2023-01-30T13:49:43.837Z,100727.16
2023-01-30T13:52:41.322Z,100718.38
2023-01-30T13:55:32.849Z,100712.31
2023-01-30T13:58:25.451Z,100716.09
2023-01-30T14:00:55.450Z,100703.88
2023-01-30T14:03:25.338Z,100701.34
2023-01-30T14:06:03.279Z,100702.44
2023-01-30T14:08:46.162Z,100713.16
2023-01-30T14:11:36.356Z,100698.31
2023-01-30T14:14:21.077Z,100700.97
2023-01-30T14:16:52.234Z,100691.44
2023-01-30T14:19:37.322Z,100685.25
2023-01-30T14:22:25.717Z,100679.09
2023-01-30T14:25:38.862Z,100687.34
2023-01-30T14:28:08.954Z,100675.28
2023-01-30T14:30:48.146Z,100676.47
2023-01-30T14:33:23.361Z,100673.97
2023-01-30T14:36:07.645Z,100664.53
2023-01-30T14:38:38.663Z,100660.06
2023-01-30T14:41:07.452Z,100672.88
2023-01-30T14:43:43.199Z,100679.28
2023-01-30T14:46:21.068Z,100680.38
2023-01-30T14:48:57.025Z,100671.91
2023-01-30T14:51:28.793Z,100659.47
2023-01-30T14:54:00.947Z,100666.84
2023-01-30T14:56:45.603Z,100679.50
2023-01-30T14:59:17.580Z,100668.88
2023-01-30T15:02:00.175Z,100664.78
2023-01-30T15:04:40.160Z,100677.50
2023-01-30T15:07:48.885Z,100661.19
2023-01-30T15:10:33.689Z,100677.22
2023-01-30T15:13:05.119Z,100674.81
2023-01-30T15:16:00.157Z,100681.94
2023-01-30T15:18:40.909Z,100690.88
2023-01-30T15:21:29.708Z,100689.41
2023-01-30T15:24:26.394Z,100674.44
2023-01-30T15:27:14.072Z,100669.41
2023-01-30T15:30:01.255Z,100660.59
2023-01-30T15:32:31.327Z,100668.91
2023-01-30T15:35:16.985Z,100676.03
2023-01-30T15:37:48.829Z,100678.16
2023-01-30T15:40:20.862Z,100684.69
2023-01-30T15:43:00.475Z,100685.88
2023-01-30T15:45:34.936Z,100697.81
2023-01-30T15:48:12.805Z,100687.47
2023-01-30T15:50:47.200Z,100676.34
2023-01-30T15:53:16.211Z,100671.59
2023-01-30T15:55:44.919Z,100679.66
2023-01-30T15:58:17.350Z,100691.34
2023-01-30T16:00:47.964Z,100693.38
2023-01-30T16:03:23.713Z,100688.34
2023-01-30T16:05:55.553Z,100690.72
2023-01-30T16:08:32.192Z,100687.97
2023-01-30T16:11:00.979Z,100692.91
2023-01-30T16:13:30.473Z,100694.81
2023-01-30T16:16:08.266Z,100701.19
2023-01-30T16:18:50.003Z,100713.25
2023-01-30T16:21:24.378Z,100700.28
2023-01-30T16:23:58.808Z,100694.47
2023-01-30T16:26:27.589Z,100694.47
2023-01-30T16:29:07.379Z,100697.75
2023-01-30T16:31:39.902Z,100702.47
2023-01-30T16:34:30.657Z,100702.81
2023-01-30T16:37:04.360Z,100710.88
2023-01-30T16:39:35.226Z,100714.16
2023-01-30T16:42:18.868Z,100710.28
2023-01-30T16:44:47.920Z,100700.25
2023-01-30T16:47:25.534Z,100700.25
2023-01-30T16:49:55.021Z,100715.50
2023-01-30T16:52:25.790Z,100699.84
2023-01-30T16:54:58.962Z,100703.47
2023-01-30T16:57:43.972Z,100711.91
2023-01-30T17:00:27.321Z,100715.63
2023-01-30T17:03:21.875Z,100707.09
2023-01-30T17:05:51.950Z,100719.97
2023-01-30T17:08:43.239Z,100723.78
2023-01-30T17:11:29.443Z,100731.47
2023-01-30T17:14:26.131Z,100713.16
2023-01-30T17:17:05.063Z,100709.56
2023-01-30T17:19:34.107Z,100708.81
2023-01-30T17:22:05.753Z,100716.81
2023-01-30T17:24:35.435Z,100711.72
2023-01-30T17:27:04.863Z,100708.09
2023-01-30T17:29:42.515Z,100719.56
2023-01-30T17:32:13.658Z,100720.16
2023-01-30T17:34:42.453Z,100713.53
2023-01-30T17:37:20.036Z,100716.59
2023-01-30T17:39:48.903Z,100728.00
2023-01-30T17:42:21.169Z,100726.31
2023-01-30T17:44:49.935Z,100722.16
2023-01-30T17:47:19.027Z,100727.94
2023-01-30T17:49:47.718Z,100728.19
2023-01-30T17:52:16.489Z,100742.44
2023-01-30T17:54:44.989Z,100734.22
2023-01-30T17:57:15.841Z,100736.28
2023-01-30T17:59:44.661Z,100740.00
2023-01-30T18:02:15.828Z,100732.19
2023-01-30T18:04:45.130Z,100728.56
2023-01-30T18:07:14.793Z,100741.47
2023-01-30T18:09:43.601Z,100741.19
2023-01-30T18:12:12.574Z,100741.06
2023-01-30T18:14:41.271Z,100735.72
2023-01-30T18:17:11.489Z,100744.84
2023-01-30T18:19:40.235Z,100736.53
2023-01-30T18:22:09.328Z,100735.09
2023-01-30T18:24:38.109Z,100728.09
2023-01-30T18:27:08.330Z,100725.66
2023-01-30T18:29:37.769Z,100735.41
2023-01-30T18:32:06.873Z,100735.41
2023-01-30T18:34:35.656Z,100729.25
2023-01-30T18:37:04.743Z,100735.47
2023-01-30T18:39:33.526Z,100736.41
2023-01-30T18:42:03.267Z,100734.44
2023-01-30T18:44:32.003Z,100730.22
2023-01-30T18:47:00.996Z,100732.28
2023-01-30T18:49:30.932Z,100738.97
2023-01-30T18:52:00.046Z,100742.97
2023-01-30T18:54:28.804Z,100749.66
2023-01-30T18:56:57.936Z,100750.38
2023-01-30T18:59:26.965Z,100742.16
2023-01-30T19:01:55.938Z,100746.53
2023-01-30T19:04:24.664Z,100741.72
2023-01-30T19:06:54.984Z,100739.50
2023-01-30T19:09:23.773Z,100739.44
2023-01-30T19:12:11.337Z,100742.63
2023-01-30T19:14:40.163Z,100744.03
2023-01-30T19:17:09.324Z,100747.06
2023-01-30T19:19:38.154Z,100744.94
2023-01-30T19:22:07.204Z,100756.19
2023-01-30T19:24:35.975Z,100756.94
2023-01-30T19:27:05.664Z,100771.09
2023-01-30T19:29:34.375Z,100778.06
2023-01-30T19:32:03.680Z,100793.09
2023-01-30T19:34:32.444Z,100788.13
2023-01-30T19:37:01.480Z,100792.03
2023-01-30T19:39:30.222Z,100811.91
2023-01-30T19:41:59.343Z,100817.63
2023-01-30T19:44:28.250Z,100814.38
2023-01-30T19:46:57.347Z,100809.19
2023-01-30T19:49:26.104Z,100816.13
2023-01-30T19:51:57.333Z,100807.75
2023-01-30T19:54:26.100Z,100806.22
2023-01-30T19:56:55.134Z,100812.03
2023-01-30T19:59:28.737Z,100813.41
2023-01-30T20:01:57.925Z,100815.34
2023-01-30T20:04:26.755Z,100819.69
2023-01-30T20:06:55.824Z,100820.28
2023-01-30T20:09:24.561Z,100841.03
2023-01-30T20:11:53.714Z,100835.38
2023-01-30T20:14:22.464Z,100822.16
2023-01-30T20:16:51.482Z,100854.66
2023-01-30T20:19:20.094Z,100821.38
2023-01-30T20:21:49.108Z,100830.44
2023-01-30T20:24:18.473Z,100848.34
2023-01-30T20:26:48.640Z,100845.88
2023-01-30T20:29:18.669Z,100839.56
2023-01-30T20:31:47.814Z,100850.09
2023-01-30T20:34:16.615Z,100861.13
2023-01-30T20:36:45.664Z,100854.50
2023-01-30T20:39:16.277Z,100867.81
2023-01-30T20:41:45.346Z,100881.78
2023-01-30T20:44:14.736Z,100886.63
2023-01-30T20:46:46.314Z,100889.06
2023-01-30T20:49:19.618Z,100884.09
2023-01-30T20:51:53.125Z,100911.94
2023-01-30T20:54:22.907Z,100916.41
2023-01-30T20:56:53.312Z,100919.84
2023-01-30T20:59:24.462Z,100917.16
2023-01-30T21:01:53.694Z,100920.34
2023-01-30T21:04:24.398Z,100928.44
2023-01-30T21:06:54.250Z,100913.53
2023-01-30T21:09:23.687Z,100922.38
2023-01-30T21:11:53.546Z,100920.44
2023-01-30T21:14:22.521Z,100926.00
2023-01-30T21:16:53.033Z,100928.75
2023-01-30T21:19:23.014Z,100940.38
2023-01-30T21:21:55.496Z,100947.28
2023-01-30T21:24:26.168Z,100946.88
2023-01-30T21:26:55.425Z,100950.50
2023-01-30T21:29:25.058Z,100950.34
2023-01-30T21:31:54.404Z,100962.94
2023-01-30T21:34:23.445Z,100964.88
2023-01-30T21:37:26.427Z,100960.09
2023-01-30T21:40:13.616Z,100963.75
2023-01-30T21:43:01.150Z,100979.63
2023-01-30T21:45:29.945Z,100983.50
2023-01-30T21:47:59.023Z,100982.31
2023-01-30T21:50:28.476Z,100990.19
2023-01-30T21:52:57.533Z,100991.75
2023-01-30T21:55:26.246Z,101005.13
2023-01-30T21:57:55.592Z,101012.50
2023-01-30T22:00:24.249Z,101008.59
2023-01-30T22:02:53.257Z,101019.00
2023-01-30T22:05:22.361Z,101015.38
2023-01-30T22:07:51.615Z,101020.84
2023-01-30T22:10:20.325Z,101024.09
2023-01-30T22:12:49.413Z,101023.59
2023-01-30T22:15:21.044Z,101033.41
2023-01-30T22:17:50.619Z,101032.91
2023-01-30T22:20:19.387Z,101037.88
2023-01-30T22:22:49.496Z,101032.78
2023-01-30T22:25:18.610Z,101050.69
2023-01-30T22:27:49.336Z,101056.22
2023-01-30T22:30:18.675Z,101063.94
2023-01-30T22:32:47.782Z,101055.25
2023-01-30T22:35:16.540Z,101059.38
2023-01-30T22:37:45.547Z,101058.03
2023-01-30T22:40:14.355Z,101065.25
2023-01-30T22:42:48.551Z,101080.59
2023-01-30T22:45:17.681Z,101079.13
2023-01-30T22:47:47.013Z,101089.16
2023-01-30T22:50:15.818Z,101087.81
2023-01-30T22:52:46.093Z,101090.56
2023-01-30T22:55:14.794Z,101104.94
2023-01-30T22:57:43.836Z,101096.34
2023-01-30T23:00:12.759Z,101101.03
2023-01-30T23:02:41.537Z,101097.00
2023-01-30T23:05:10.427Z,101114.13
2023-01-30T23:07:39.250Z,101103.59
2023-01-30T23:10:08.524Z,101116.16
2023-01-30T23:12:55.899Z,101121.72
2023-01-30T23:15:24.863Z,101123.84
2023-01-30T23:18:13.116Z,101130.25
2023-01-30T23:20:41.539Z,101124.31
2023-01-30T23:23:10.800Z,101130.69
2023-01-30T23:25:42.813Z,101142.38
2023-01-30T23:28:11.892Z,101135.47
2023-01-30T23:30:40.738Z,101134.84
2023-01-30T23:33:09.811Z,101142.09
2023-01-30T23:35:38.886Z,101144.00
2023-01-30T23:38:16.976Z,101142.53
2023-01-30T23:40:47.269Z,101147.09
2023-01-30T23:43:16.629Z,101161.56
2023-01-30T23:45:45.407Z,101165.28
2023-01-30T23:48:14.477Z,101151.16
2023-01-30T23:50:43.148Z,101151.38
2023-01-30T23:53:12.183Z,101158.59
2023-01-30T23:55:40.800Z,101165.84
2023-01-30T23:58:09.800Z,101174.09
